Time;durP1;ratioP1;P1;durP2;ratioP2;P2;SDS_P1;SDS_P2;PMS_P1;PMS_P2;Temp;Humidity;BMP_temperature;BMP_pressure;BME280_temperature;BME280_humidity;BME280_pressure;Samples;Min_cycle;Max_cycle;Signal;HPM_P1;HPM_P2
2022/05/03 00:00:11;;;;;;;7.65;4.00;;;8.60;99.90;;;;;;5049547;28;20493;-46
2022/05/03 00:02:45;;;;;;;8.75;4.20;;;8.40;99.90;;;;;;5032345;28;20044;-47
2022/05/03 00:05:37;;;;;;;6.45;3.80;;;8.20;99.90;;;;;;5050387;28;20419;-46
2022/05/03 00:08:43;;;;;;;6.82;3.97;;;8.00;99.90;;;;;;5010521;28;20045;-47
2022/05/03 00:11:27;;;;;;;6.88;3.67;;;8.10;99.90;;;;;;5050527;28;20110;-47
2022/05/03 00:14:31;;;;;;;5.82;3.90;;;7.80;99.90;;;;;;5043152;28;20053;-47
2022/05/03 00:16:58;;;;;;;7.40;4.22;;;8.10;99.90;;;;;;5051379;28;20049;-49
2022/05/03 00:19:24;;;;;;;6.53;4.47;;;8.00;99.90;;;;;;5049444;28;20191;-48
2022/05/03 00:21:51;;;;;;;7.80;4.63;;;8.10;99.90;;;;;;5031939;28;20491;-46
2022/05/03 00:24:17;;;;;;;7.60;4.43;;;8.10;99.90;;;;;;5031711;28;20075;-48
2022/05/03 00:26:43;;;;;;;6.78;4.60;;;8.10;99.90;;;;;;5031217;28;20041;-48
2022/05/03 00:29:10;;;;;;;7.97;4.68;;;8.10;99.90;;;;;;5030951;28;20037;-45
2022/05/03 00:31:37;;;;;;;6.45;4.28;;;8.20;99.90;;;;;;5032518;28;20028;-48
2022/05/03 00:34:03;;;;;;;8.90;4.78;;;8.10;99.90;;;;;;5031573;28;20099;-48
2022/05/03 00:36:30;;;;;;;7.43;4.68;;;8.20;99.90;;;;;;5032225;28;20077;-49
2022/05/03 00:38:57;;;;;;;8.65;4.82;;;8.10;99.90;;;;;;5031927;28;20049;-50
2022/05/03 00:42:04;;;;;;;7.35;4.88;;;8.10;99.90;;;;;;5031553;28;20076;-48
2022/05/03 00:45:00;;;;;;;8.02;4.68;;;8.10;99.90;;;;;;5021494;28;20512;-48
2022/05/03 00:47:35;;;;;;;7.57;4.82;;;8.00;99.90;;;;;;5031980;28;20048;-46
2022/05/03 00:50:06;;;;;;;7.53;4.90;;;7.90;99.90;;;;;;5031268;28;20077;-49
2022/05/03 00:52:37;;;;;;;8.00;4.88;;;7.60;99.90;;;;;;5032654;28;20033;-50
2022/05/03 00:55:09;;;;;;;8.50;4.82;;;7.50;99.90;;;;;;5031343;28;20037;-46
2022/05/03 00:57:35;;;;;;;7.75;4.72;;;7.10;99.90;;;;;;5030596;28;20559;-48
2022/05/03 01:00:06;;;;;;;8.10;4.70;;;7.00;99.90;;;;;;5031294;28;20046;-47
2022/05/03 01:03:01;;;;;;;8.10;4.80;;;6.90;99.90;;;;;;5031672;28;20049;-49
2022/05/03 01:05:35;;;;;;;7.07;4.95;;;7.00;99.90;;;;;;5032025;28;20116;-47
2022/05/03 01:08:07;;;;;;;8.52;5.20;;;7.10;99.90;;;;;;5032495;28;20038;-47
2022/05/03 01:11:34;;;;;;;9.98;5.65;;;7.20;99.90;;;;;;5031041;28;20037;-46
2022/05/03 01:14:21;;;;;;;7.40;4.57;;;7.30;99.90;;;;;;4978389;28;20049;-47
2022/05/03 01:17:05;;;;;;;8.52;5.43;;;7.20;99.90;;;;;;5050617;28;20412;-47
2022/05/03 01:20:05;;;;;;;9.93;5.70;;;7.50;99.90;;;;;;5050699;28;20036;-45
2022/05/03 01:23:08;;;;;;;8.82;5.53;;;7.30;99.90;;;;;;5039800;28;20106;-49
2022/05/03 01:25:43;;;;;;;8.70;5.90;;;7.00;99.90;;;;;;5049534;28;20033;-46
2022/05/03 01:28:37;;;;;;;8.85;5.72;;;7.10;99.90;;;;;;5050210;28;20045;-46
2022/05/03 01:31:05;;;;;;;11.05;5.82;;;7.00;99.90;;;;;;5047867;28;20060;-46
2022/05/03 01:33:45;;;;;;;7.88;5.10;;;7.10;99.90;;;;;;5050504;28;20091;-46
2022/05/03 01:36:15;;;;;;;8.18;5.47;;;6.80;99.90;;;;;;5050523;28;20124;-47
2022/05/03 01:38:59;;;;;;;9.43;5.75;;;6.80;99.90;;;;;;5050511;28;20079;-45
2022/05/03 01:41:51;;;;;;;8.43;5.82;;;6.80;99.90;;;;;;5053504;28;20384;-47
2022/05/03 01:44:34;;;;;;;11.25;5.60;;;6.80;99.90;;;;;;5054071;28;20032;-48
2022/05/03 01:47:22;;;;;;;10.52;5.57;;;6.80;99.90;;;;;;5053982;28;20040;-48
2022/05/03 01:53:15;;;;;;;8.63;5.65;;;6.70;99.90;;;;;;5054264;28;20507;-47
2022/05/03 01:56:09;;;;;;;8.68;5.50;;;6.60;99.90;;;;;;5054306;28;20049;-45
2022/05/03 01:59:31;;;;;;;9.27;5.55;;;6.60;99.90;;;;;;5054535;28;20044;-46
2022/05/03 02:02:09;;;;;;;8.75;5.30;;;6.70;99.90;;;;;;5036785;28;20049;-45
2022/05/03 02:04:40;;;;;;;7.78;5.43;;;6.70;99.90;;;;;;5054323;28;20045;-48
2022/05/03 02:07:11;;;;;;;9.07;5.82;;;6.60;99.90;;;;;;5054316;28;20385;-46
2022/05/03 02:10:12;;;;;;;8.95;5.80;;;6.70;99.90;;;;;;5054172;28;20041;-45
2022/05/03 02:12:40;;;;;;;12.63;6.28;;;6.60;99.90;;;;;;5022635;28;20523;-45
2022/05/03 02:15:09;;;;;;;11.27;6.78;;;6.60;99.90;;;;;;5054260;28;20056;-51
2022/05/03 02:18:05;;;;;;;9.85;6.70;;;6.80;99.90;;;;;;5054241;28;20488;-46
2022/05/03 02:21:05;;;;;;;10.60;5.90;;;6.80;99.90;;;;;;5054128;28;20543;-48
2022/05/03 02:24:01;;;;;;;8.70;6.10;;;6.80;99.90;;;;;;5053438;28;20044;-50
2022/05/03 02:27:08;;;;;;;10.43;6.72;;;6.80;99.90;;;;;;5053421;28;20091;-45
2022/05/03 02:29:48;;;;;;;9.13;6.63;;;6.90;99.90;;;;;;5014182;28;20044;-47
2022/05/03 02:32:57;;;;;;;9.40;6.68;;;6.90;99.90;;;;;;5053989;28;20036;-48
2022/05/03 02:35:27;;;;;;;9.07;6.03;;;6.90;99.90;;;;;;5026946;28;20048;-46
2022/05/03 02:37:57;;;;;;;8.02;5.65;;;6.80;99.90;;;;;;5053896;28;20086;-45
2022/05/03 02:40:30;;;;;;;5.80;4.28;;;6.80;99.90;;;;;;5053711;28;20025;-44
2022/05/03 02:42:56;;;;;;;6.72;4.30;;;6.80;99.90;;;;;;5053636;28;20432;-47
2022/05/03 02:45:22;;;;;;;6.28;4.18;;;6.70;99.90;;;;;;5053650;28;20063;-48
2022/05/03 02:48:14;;;;;;;7.22;5.00;;;6.50;99.90;;;;;;5034832;28;20061;-47
2022/05/03 02:50:53;;;;;;;8.68;6.00;;;6.50;99.90;;;;;;5031793;28;20048;-45
2022/05/03 02:53:33;;;;;;;8.98;6.28;;;6.50;99.90;;;;;;5032237;28;20049;-47
2022/05/03 02:56:07;;;;;;;8.25;5.88;;;6.60;99.90;;;;;;5029901;28;20041;-46
2022/05/03 02:58:59;;;;;;;7.40;5.30;;;6.60;99.90;;;;;;5032353;28;20085;-46
2022/05/03 03:01:56;;;;;;;5.78;3.72;;;6.60;99.90;;;;;;5028013;28;20139;-45
2022/05/03 03:04:50;;;;;;;6.20;3.53;;;6.60;99.90;;;;;;5031900;28;20120;-45
2022/05/03 03:07:17;;;;;;;;;;;6.50;99.90;;;;;;5032731;28;20091;-47
2022/05/03 03:09:48;;;;;;;4.32;2.97;;;6.40;99.90;;;;;;5032452;28;20303;-47
2022/05/03 03:12:55;;;;;;;4.65;2.88;;;6.40;99.90;;;;;;5031860;28;20075;-45
2022/05/03 03:15:29;;;;;;;4.28;2.63;;;6.40;99.90;;;;;;5032139;28;20496;-45
2022/05/03 03:17:57;;;;;;;5.32;2.92;;;6.30;99.90;;;;;;5032281;28;20037;-45
2022/05/03 03:20:25;;;;;;;4.85;2.92;;;6.10;99.90;;;;;;5031919;28;20420;-45
2022/05/03 03:22:51;;;;;;;5.28;3.42;;;6.00;99.90;;;;;;5031677;28;20117;-45
2022/05/03 03:25:21;;;;;;;7.30;4.35;;;6.00;99.90;;;;;;5031732;28;20029;-46
2022/05/03 03:27:48;;;;;;;7.72;3.92;;;6.10;99.90;;;;;;5031624;28;20045;-46
2022/05/03 03:30:16;;;;;;;7.18;4.18;;;6.00;99.90;;;;;;5031682;28;20481;-46
2022/05/03 03:32:46;;;;;;;6.40;4.35;;;5.90;99.90;;;;;;5031519;28;20037;-46
2022/05/03 03:35:14;;;;;;;7.45;4.88;;;6.00;99.90;;;;;;5030535;28;20072;-47
2022/05/03 03:37:51;;;;;;;8.77;5.10;;;6.10;99.90;;;;;;5031683;28;20049;-49
2022/05/03 03:40:19;;;;;;;7.97;5.50;;;6.00;99.90;;;;;;5031867;28;20388;-47
2022/05/03 03:42:46;;;;;;;6.50;4.53;;;6.00;99.90;;;;;;5031308;28;20049;-45
2022/05/03 03:45:13;;;;;;;7.75;5.28;;;5.80;99.90;;;;;;5031392;28;20037;-49
2022/05/03 03:47:41;;;;;;;9.05;5.60;;;5.80;99.90;;;;;;4992531;28;1086439;-47
2022/05/03 03:50:07;;;;;;;9.52;5.78;;;5.80;99.90;;;;;;5032648;28;20290;-47
2022/05/03 03:52:34;;;;;;;8.93;6.05;;;5.90;99.90;;;;;;5032214;28;20108;-48
2022/05/03 03:55:04;;;;;;;10.23;6.13;;;5.90;99.90;;;;;;5032250;28;20033;-48
2022/05/03 03:57:30;;;;;;;8.07;5.90;;;5.90;99.90;;;;;;5031632;28;20033;-46
2022/05/03 04:00:01;;;;;;;9.90;6.40;;;5.80;99.90;;;;;;5032168;28;20037;-45
2022/05/03 04:02:27;;;;;;;8.32;6.03;;;5.80;99.90;;;;;;5031448;28;20072;-45
2022/05/03 04:04:54;;;;;;;10.18;6.80;;;5.80;99.90;;;;;;5032013;28;20104;-45
2022/05/03 04:07:19;;;;;;;8.40;6.32;;;5.90;99.90;;;;;;5032161;28;20087;-46
2022/05/03 04:09:45;;;;;;;8.63;6.20;;;5.80;99.90;;;;;;5032078;28;20029;-48
2022/05/03 04:12:12;;;;;;;9.38;6.68;;;5.90;99.90;;;;;;5032125;28;20033;-45
2022/05/03 04:14:38;;;;;;;9.77;6.53;;;5.90;99.90;;;;;;5050381;28;20071;-47
2022/05/03 04:17:03;;;;;;;9.40;6.45;;;5.90;99.90;;;;;;5051677;28;20045;-46
2022/05/03 04:19:29;;;;;;;9.75;6.80;;;6.00;99.90;;;;;;5051777;28;20582;-46
2022/05/03 04:21:55;;;;;;;9.23;6.57;;;5.90;99.90;;;;;;5043301;28;20424;-47
2022/05/03 04:24:20;;;;;;;9.82;7.43;;;5.90;99.90;;;;;;5031767;28;20037;-46
2022/05/03 04:26:46;;;;;;;11.77;7.32;;;5.80;99.90;;;;;;5031576;28;20037;-46
2022/05/03 04:29:12;;;;;;;9.95;6.90;;;5.80;99.90;;;;;;5031510;28;20473;-45
2022/05/03 04:31:38;;;;;;;13.60;7.65;;;5.80;99.90;;;;;;5031473;28;20041;-46
2022/05/03 04:34:04;;;;;;;10.45;7.03;;;5.80;99.90;;;;;;5032537;28;20512;-46
2022/05/03 04:36:32;;;;;;;10.30;7.00;;;5.80;99.90;;;;;;5031193;28;20037;-47
2022/05/03 04:38:59;;;;;;;10.32;7.28;;;5.90;99.90;;;;;;5031407;28;20045;-46
2022/05/03 04:41:25;;;;;;;12.70;7.60;;;5.90;99.90;;;;;;5031536;28;20037;-48
2022/05/03 04:43:51;;;;;;;13.63;7.85;;;6.00;99.90;;;;;;5031437;28;20060;-46
2022/05/03 04:46:17;;;;;;;11.77;7.72;;;6.00;99.90;;;;;;5031450;28;20037;-46
2022/05/03 04:48:43;;;;;;;10.68;7.82;;;6.10;99.90;;;;;;5031020;28;20136;-48
2022/05/03 04:51:25;;;;;;;10.73;7.70;;;6.10;99.90;;;;;;5033662;28;20580;-45
2022/05/03 04:53:51;;;;;;;11.35;7.95;;;6.10;99.90;;;;;;5031384;28;20362;-46
2022/05/03 04:56:17;;;;;;;13.10;7.95;;;6.20;99.90;;;;;;5030759;28;20120;-47
2022/05/03 04:58:43;;;;;;;12.80;8.43;;;6.30;99.90;;;;;;5032445;28;20135;-45
2022/05/03 05:01:08;;;;;;;14.13;8.55;;;6.40;99.90;;;;;;5030757;28;20527;-47
2022/05/03 05:03:34;;;;;;;14.15;8.70;;;6.50;99.90;;;;;;5030888;28;20175;-47
2022/05/03 05:06:00;;;;;;;14.23;8.85;;;6.70;99.90;;;;;;5030931;28;20041;-49
2022/05/03 05:08:25;;;;;;;12.60;9.10;;;6.80;99.90;;;;;;5029588;28;20045;-45
2022/05/03 05:10:51;;;;;;;12.43;8.98;;;6.90;99.90;;;;;;5030672;28;20040;-46
2022/05/03 05:13:17;;;;;;;12.18;8.80;;;7.10;99.90;;;;;;5030940;28;20037;-47
2022/05/03 05:15:42;;;;;;;12.15;8.63;;;7.20;99.90;;;;;;5030527;28;20116;-47
2022/05/03 05:18:08;;;;;;;10.55;7.43;;;7.40;99.90;;;;;;5030838;28;20397;-47
2022/05/03 05:20:34;;;;;;;8.57;6.80;;;7.50;99.90;;;;;;5030778;28;20041;-45
2022/05/03 05:23:00;;;;;;;12.85;7.10;;;7.60;99.90;;;;;;5030445;28;20042;-46
2022/05/03 05:25:25;;;;;;;16.45;6.20;;;7.70;99.90;;;;;;5030842;28;20043;-46
2022/05/03 05:27:51;;;;;;;17.00;7.05;;;7.80;99.90;;;;;;5030080;28;20139;-48
2022/05/03 05:30:17;;;;;;;52.63;8.90;;;7.90;99.90;;;;;;5030660;28;20041;-45
2022/05/03 05:32:42;;;;;;;51.22;9.93;;;8.00;99.90;;;;;;5030683;28;20374;-47
2022/05/03 05:35:09;;;;;;;60.58;10.65;;;8.20;99.90;;;;;;5030610;28;20113;-48
2022/05/03 05:37:35;;;;;;;61.35;10.07;;;8.30;99.90;;;;;;5030887;28;20120;-48
2022/05/03 05:40:00;;;;;;;30.42;8.85;;;8.40;99.90;;;;;;5030633;28;20041;-47
2022/05/03 05:42:26;;;;;;;18.15;8.80;;;8.50;99.90;;;;;;5029104;28;20424;-47
2022/05/03 05:44:52;;;;;;;11.27;7.80;;;8.50;99.90;;;;;;5030654;28;20034;-49
2022/05/03 05:47:18;;;;;;;12.13;9.10;;;8.40;99.90;;;;;;5030282;28;20053;-50
2022/05/03 05:49:44;;;;;;;13.95;8.52;;;8.40;99.90;;;;;;5028665;28;20055;-48
2022/05/03 05:54:54;;;;;;;14.07;9.38;;;8.60;99.90;;;;;;5049241;28;20063;-47
2022/05/03 05:57:20;;;;;;;10.43;8.43;;;8.60;99.90;;;;;;5049291;28;20033;-46
2022/05/03 05:59:46;;;;;;;10.48;8.45;;;8.70;99.90;;;;;;5048981;28;20427;-45
2022/05/03 06:02:11;;;;;;;10.90;7.72;;;8.80;99.90;;;;;;5049433;28;20033;-45
2022/05/03 06:04:37;;;;;;;11.65;8.63;;;8.80;99.90;;;;;;5049641;28;20098;-47
2022/05/03 06:07:03;;;;;;;13.80;9.45;;;9.00;99.90;;;;;;5050012;28;20116;-48
2022/05/03 06:09:29;;;;;;;13.80;10.05;;;9.10;99.90;;;;;;5050448;28;20029;-47
2022/05/03 06:11:54;;;;;;;12.85;9.52;;;9.10;99.90;;;;;;5049859;28;20500;-46
2022/05/03 06:14:20;;;;;;;15.90;10.30;;;9.10;99.90;;;;;;5050021;28;20049;-49
2022/05/03 06:16:50;;;;;;;14.48;10.57;;;9.20;99.90;;;;;;5050113;28;20473;-48
2022/05/03 06:19:16;;;;;;;14.05;10.40;;;9.30;99.90;;;;;;5049967;28;20419;-45
2022/05/03 06:21:42;;;;;;;16.92;11.85;;;9.40;99.90;;;;;;5050155;28;20037;-47
2022/05/03 06:24:08;;;;;;;16.70;12.75;;;9.50;99.90;;;;;;5049868;28;20122;-46
2022/05/03 06:26:34;;;;;;;19.75;12.90;;;9.50;99.90;;;;;;5050698;28;20041;-46
2022/05/03 06:29:06;;;;;;;18.75;13.15;;;9.60;99.90;;;;;;5053818;28;20036;-46
2022/05/03 06:31:33;;;;;;;20.48;12.75;;;9.70;99.90;;;;;;5053763;28;20043;-49
2022/05/03 06:33:59;;;;;;;21.85;13.85;;;9.70;99.90;;;;;;5053758;28;20057;-49
2022/05/03 06:36:26;;;;;;;23.23;14.70;;;9.80;99.90;;;;;;5048990;28;20025;-47
2022/05/03 06:38:51;;;;;;;19.58;14.60;;;9.80;99.90;;;;;;5053337;28;20127;-48
2022/05/03 06:41:17;;;;;;;24.25;14.35;;;9.80;99.90;;;;;;5053572;28;20171;-45
2022/05/03 06:43:43;;;;;;;20.65;13.85;;;9.90;99.90;;;;;;5053457;28;20045;-46
2022/05/03 06:46:10;;;;;;;22.95;15.10;;;9.90;99.90;;;;;;5052740;28;20511;-46
2022/05/03 06:48:35;;;;;;;25.05;16.73;;;9.90;99.90;;;;;;5040567;28;20052;-50
2022/05/03 06:51:01;;;;;;;26.15;17.17;;;9.90;99.90;;;;;;5041726;28;20485;-47
2022/05/03 06:53:27;;;;;;;22.92;16.08;;;9.90;99.90;;;;;;5046675;28;20037;-49
2022/05/03 06:55:53;;;;;;;22.98;15.07;;;9.90;99.90;;;;;;5048342;28;20060;-50
2022/05/03 06:58:18;;;;;;;28.92;19.45;;;9.90;99.90;;;;;;5045386;28;20049;-47
2022/05/03 07:00:44;;;;;;;30.27;18.73;;;9.90;99.90;;;;;;5034350;28;20048;-46
2022/05/03 07:03:10;;;;;;;38.38;21.83;;;10.00;99.90;;;;;;5030951;28;20129;-46
2022/05/03 07:05:35;;;;;;;34.75;21.42;;;10.10;99.90;;;;;;5028961;28;20029;-46
2022/05/03 07:08:01;;;;;;;35.85;21.05;;;10.10;99.90;;;;;;5024944;28;20063;-46
2022/05/03 07:10:27;;;;;;;38.85;22.05;;;10.10;99.90;;;;;;5030557;28;20095;-46
2022/05/03 07:12:52;;;;;;;38.03;21.58;;;10.20;99.90;;;;;;5031107;28;20037;-46
2022/05/03 07:15:18;;;;;;;44.10;24.83;;;10.20;99.90;;;;;;5030797;28;20041;-46
2022/05/03 07:23:15;;;;;;;43.00;24.67;;;10.20;99.90;;;;;;5034084;28;20060;-47
2022/05/03 07:25:41;;;;;;;54.22;27.23;;;10.20;99.90;;;;;;5036779;28;20492;-51
2022/05/03 07:28:07;;;;;;;53.28;27.27;;;10.20;99.90;;;;;;5034653;28;20473;-46
2022/05/03 07:30:34;;;;;;;54.03;27.88;;;10.30;99.90;;;;;;5034602;28;20132;-48
2022/05/03 07:33:00;;;;;;;51.78;27.92;;;10.40;99.90;;;;;;5030321;28;20449;-46
2022/05/03 07:35:26;;;;;;;50.28;27.80;;;10.50;99.90;;;;;;5033554;28;20065;-48
2022/05/03 07:37:52;;;;;;;56.05;28.48;;;10.50;99.90;;;;;;5030053;28;20548;-47
2022/05/03 07:40:18;;;;;;;58.53;28.75;;;10.60;99.90;;;;;;5035595;28;20559;-45
2022/05/03 07:42:43;;;;;;;74.50;32.03;;;10.60;99.90;;;;;;5030881;28;20033;-45
2022/05/03 07:45:09;;;;;;;87.38;35.08;;;10.60;99.90;;;;;;5030197;28;20091;-46
2022/05/03 07:47:36;;;;;;;85.10;35.33;;;10.60;99.90;;;;;;5029020;28;20029;-48
2022/05/03 07:50:05;;;;;;;82.22;33.65;;;10.70;99.90;;;;;;5032607;28;20537;-47
2022/05/03 07:52:31;;;;;;;85.03;34.35;;;10.70;99.90;;;;;;5026801;28;20436;-46
2022/05/03 07:54:57;;;;;;;93.15;35.88;;;10.80;99.90;;;;;;5027696;28;20497;-45
2022/05/03 07:57:24;;;;;;;82.15;34.90;;;10.90;99.90;;;;;;5027992;28;20105;-48
2022/05/03 07:59:54;;;;;;;83.05;35.05;;;10.90;99.90;;;;;;5034146;28;20044;-47
2022/05/03 08:02:22;;;;;;;86.93;34.40;;;10.90;99.90;;;;;;5030801;28;20342;-45
2022/05/03 08:04:49;;;;;;;85.30;34.28;;;10.90;99.90;;;;;;5031476;28;20042;-49
2022/05/03 08:07:15;;;;;;;86.65;35.15;;;10.90;99.90;;;;;;5032500;28;20409;-47
2022/05/03 08:09:40;;;;;;;87.22;33.70;;;10.80;99.90;;;;;;5027847;28;20087;-49
2022/05/03 08:12:06;;;;;;;89.38;34.50;;;10.80;99.90;;;;;;5028235;28;20181;-46
2022/05/03 08:14:32;;;;;;;86.65;34.08;;;10.80;99.90;;;;;;5030145;28;20120;-46
2022/05/03 08:16:58;;;;;;;97.13;34.85;;;10.80;99.90;;;;;;5028331;28;20117;-49
2022/05/03 08:19:24;;;;;;;81.45;33.15;;;10.80;99.90;;;;;;5033104;28;20043;-47
2022/05/03 08:21:52;;;;;;;83.35;33.92;;;10.70;99.90;;;;;;5033051;28;20091;-49
2022/05/03 08:24:19;;;;;;;78.68;34.40;;;10.50;99.90;;;;;;5029853;28;20476;-51
2022/05/03 08:26:45;;;;;;;81.90;34.03;;;10.70;99.90;;;;;;5029877;28;20037;-46
2022/05/03 08:29:11;;;;;;;85.72;35.92;;;10.60;99.90;;;;;;5028460;28;20029;-45
2022/05/03 08:31:37;;;;;;;74.13;33.63;;;10.60;99.90;;;;;;5026419;28;20413;-44
2022/05/03 08:34:02;;;;;;;76.20;33.15;;;10.70;99.90;;;;;;5019477;28;20530;-45
2022/05/03 08:36:29;;;;;;;70.85;32.05;;;10.60;99.90;;;;;;5033654;28;20455;-45
2022/05/03 08:42:02;;;;;;;60.70;30.98;;;10.60;99.90;;;;;;4978604;28;20398;-46
2022/05/03 08:44:29;;;;;;;59.78;29.70;;;10.60;99.90;;;;;;4979284;28;20563;-47
2022/05/03 08:46:57;;;;;;;57.58;28.23;;;10.50;99.90;;;;;;5003334;28;20047;-48
2022/05/03 08:49:24;;;;;;;51.60;26.50;;;10.60;99.90;;;;;;5028261;28;20061;-45
2022/05/03 08:51:52;;;;;;;40.42;21.88;;;10.60;99.90;;;;;;5027364;28;20040;-49
2022/05/03 08:54:19;;;;;;;37.70;21.85;;;10.50;99.90;;;;;;5028763;28;20041;-48
2022/05/03 08:56:45;;;;;;;37.92;21.15;;;10.50;99.90;;;;;;5028807;28;20041;-48
2022/05/03 08:59:10;;;;;;;37.35;20.58;;;10.60;99.90;;;;;;5026784;28;20495;-47
2022/05/03 09:01:39;;;;;;;31.50;19.65;;;10.70;99.90;;;;;;5023843;28;20033;-48
2022/05/03 09:04:06;;;;;;;31.23;19.65;;;10.80;99.90;;;;;;5026011;28;20049;-47
2022/05/03 09:06:46;;;;;;;30.35;18.45;;;11.00;99.90;;;;;;5031232;28;23488;-47
2022/05/03 09:09:13;;;;;;;30.88;18.40;;;11.00;99.90;;;;;;5030247;28;20087;-45
2022/05/03 09:11:49;;;;;;;26.77;17.08;;;11.00;99.90;;;;;;5029997;28;20362;-46
2022/05/03 09:14:34;;;;;;;27.17;16.02;;;11.20;99.90;;;;;;5026770;28;20065;-47
2022/05/03 09:16:59;;;;;;;26.88;15.95;;;11.30;99.90;;;;;;5031565;28;20025;-46
2022/05/03 09:19:25;;;;;;;26.25;15.60;;;11.30;99.90;;;;;;5032616;28;20044;-46
2022/05/03 09:24:55;;;;;;;26.83;14.82;;;11.20;99.90;;;;;;5028946;28;20060;-46
2022/05/03 09:27:22;;;;;;;25.83;14.30;;;11.40;99.90;;;;;;5029548;28;20037;-46
2022/05/03 09:30:10;;;;;;;28.55;13.32;;;11.40;99.90;;;;;;5030929;28;20777;-47
2022/05/03 09:32:40;;;;;;;26.27;12.85;;;11.40;99.90;;;;;;5030258;28;20029;-48
2022/05/03 09:35:07;;;;;;;20.20;11.80;;;11.50;99.90;;;;;;5028338;28;20030;-46
2022/05/03 09:37:42;;;;;;;23.20;12.48;;;11.40;99.90;;;;;;5029735;28;20045;-47
2022/05/03 09:40:12;;;;;;;22.05;11.90;;;11.30;99.90;;;;;;5031483;28;20108;-49
2022/05/03 09:42:38;;;;;;;20.08;10.77;;;11.40;99.90;;;;;;5027041;28;20044;-49
2022/05/03 09:45:08;;;;;;;22.73;10.60;;;11.40;99.90;;;;;;5028283;28;20609;-48
2022/05/03 09:47:51;;;;;;;20.67;10.13;;;11.50;99.90;;;;;;5028300;28;20040;-45
2022/05/03 09:50:36;;;;;;;18.50;9.50;;;11.40;99.90;;;;;;5030562;28;20041;-46
2022/05/03 09:53:17;;;;;;;17.75;8.95;;;11.50;99.90;;;;;;5029089;28;20049;-47
2022/05/03 09:55:45;;;;;;;21.30;8.85;;;11.40;99.90;;;;;;5026500;28;20057;-46
2022/05/03 09:58:13;;;;;;;15.20;7.90;;;11.50;99.90;;;;;;5025956;28;20033;-49
2022/05/03 10:00:41;;;;;;;16.60;7.72;;;11.40;99.90;;;;;;5028545;28;20037;-47
2022/05/03 10:03:09;;;;;;;14.60;7.68;;;11.50;99.90;;;;;;5034506;28;20119;-48
2022/05/03 10:05:39;;;;;;;15.93;7.15;;;11.50;99.90;;;;;;5034645;28;20029;-46
2022/05/03 10:08:07;;;;;;;15.50;7.53;;;11.50;99.90;;;;;;5036544;28;20025;-48
2022/05/03 10:10:33;;;;;;;14.15;7.55;;;11.50;99.90;;;;;;5034132;28;20040;-45
2022/05/03 10:12:59;;;;;;;15.20;7.53;;;11.50;99.90;;;;;;5033668;28;20037;-50
2022/05/03 10:21:19;;;;;;;14.27;6.97;;;11.50;99.90;;;;;;5032116;28;20037;-46
2022/05/03 10:24:01;;;;;;;13.90;7.05;;;11.60;99.90;;;;;;5034007;28;20420;-46
2022/05/03 10:27:07;;;;;;;15.65;7.20;;;11.50;99.90;;;;;;5036090;28;20036;-48
2022/05/03 10:29:37;;;;;;;14.48;7.07;;;11.30;99.90;;;;;;5030105;28;20053;-46
2022/05/03 10:32:09;;;;;;;18.92;7.85;;;11.30;99.90;;;;;;5033550;28;20040;-46
2022/05/03 10:34:56;;;;;;;19.95;7.60;;;11.20;99.90;;;;;;5030726;28;20472;-47
2022/05/03 10:37:33;;;;;;;16.90;8.40;;;11.10;99.90;;;;;;5027608;28;20587;-45
2022/05/03 10:40:01;;;;;;;15.60;6.70;;;11.30;99.90;;;;;;5032064;28;20041;-47
2022/05/03 10:42:28;;;;;;;14.55;7.43;;;11.30;99.90;;;;;;5033422;28;20029;-47
2022/05/03 10:44:58;;;;;;;21.45;7.90;;;11.20;99.90;;;;;;5029536;28;20093;-45
2022/05/03 10:47:39;;;;;;;14.20;7.40;;;11.20;99.90;;;;;;5030712;28;20029;-45
2022/05/03 10:50:16;;;;;;;15.80;7.07;;;11.20;99.90;;;;;;5031868;28;20049;-46
2022/05/03 10:53:05;;;;;;;17.33;7.55;;;11.20;99.90;;;;;;5030473;28;20057;-47
2022/05/03 10:55:33;;;;;;;18.90;7.65;;;11.20;99.90;;;;;;5029253;28;20045;-47
2022/05/03 10:58:20;;;;;;;17.25;7.45;;;11.10;99.90;;;;;;5030682;28;20038;-46
2022/05/03 11:01:06;;;;;;;18.08;7.00;;;11.20;99.90;;;;;;5030044;28;20029;-46
2022/05/03 11:03:41;;;;;;;17.73;7.70;;;11.20;99.90;;;;;;5031269;28;20524;-48
2022/05/03 11:06:18;;;;;;;15.65;6.78;;;11.10;99.90;;;;;;5033077;28;20040;-46
2022/05/03 11:09:02;;;;;;;20.20;7.32;;;11.20;99.90;;;;;;5030670;28;20045;-48
2022/05/03 11:11:43;;;;;;;19.07;6.90;;;11.20;99.90;;;;;;5030107;28;20052;-49
2022/05/03 11:14:18;;;;;;;18.23;7.10;;;11.30;99.90;;;;;;5034375;28;20045;-48
2022/05/03 11:16:47;;;;;;;17.65;7.07;;;11.30;99.90;;;;;;5029525;28;20034;-50
2022/05/03 11:19:22;;;;;;;17.85;7.50;;;11.30;99.90;;;;;;5031566;28;20467;-48
2022/05/03 11:21:49;;;;;;;17.10;7.03;;;11.30;99.90;;;;;;5028311;28;20477;-48
2022/05/03 11:24:28;;;;;;;20.88;6.85;;;11.40;99.90;;;;;;5034430;28;20138;-47
2022/05/03 11:26:58;;;;;;;17.00;6.72;;;11.40;99.90;;;;;;5031366;28;20065;-47
2022/05/03 11:29:29;;;;;;;21.58;7.50;;;11.50;99.90;;;;;;5030601;28;20136;-46
2022/05/03 11:31:55;;;;;;;17.25;6.93;;;11.60;99.90;;;;;;5028546;28;20555;-48
2022/05/03 11:34:20;;;;;;;18.17;6.38;;;11.60;99.90;;;;;;5029719;28;20064;-48
2022/05/03 11:36:50;;;;;;;16.95;5.80;;;11.40;99.90;;;;;;5029154;28;20061;-46
2022/05/03 11:39:19;;;;;;;19.17;6.25;;;11.50;99.90;;;;;;5029952;28;20037;-46
2022/05/03 11:41:46;;;;;;;21.98;6.60;;;11.70;99.90;;;;;;5028298;28;20057;-47
2022/05/03 11:44:13;;;;;;;20.90;6.55;;;11.70;99.90;;;;;;5027190;28;20034;-46
2022/05/03 11:46:39;;;;;;;16.52;6.30;;;12.00;99.90;;;;;;5027873;28;20040;-46
2022/05/03 11:49:07;;;;;;;20.75;6.43;;;12.30;99.90;;;;;;5026694;28;20103;-48
2022/05/03 11:57:12;;;;;;;16.02;6.03;;;12.50;99.90;;;;;;5029645;28;20110;-47
2022/05/03 11:59:42;;;;;;;17.10;5.60;;;12.40;99.90;;;;;;5027752;28;20108;-46
2022/05/03 12:02:19;;;;;;;15.30;5.20;;;12.60;99.90;;;;;;5028906;28;20441;-49
2022/05/03 12:05:02;;;;;;;15.48;5.45;;;12.70;99.90;;;;;;5032345;28;20231;-48
2022/05/03 12:07:28;;;;;;;13.82;5.22;;;12.70;99.90;;;;;;5033370;28;20045;-47
2022/05/03 12:09:54;;;;;;;15.75;5.55;;;12.70;99.90;;;;;;5030981;28;20041;-48
2022/05/03 12:15:14;;;;;;;13.05;4.80;;;12.90;99.90;;;;;;5031760;28;20397;-51
2022/05/03 12:17:57;;;;;;;19.40;4.75;;;13.00;99.90;;;;;;5031698;28;20040;-46
2022/05/03 12:20:23;;;;;;;17.88;4.93;;;13.20;99.90;;;;;;5031147;28;20577;-47
2022/05/03 12:23:12;;;;;;;17.13;4.25;;;13.20;99.90;;;;;;5034228;28;20128;-46
2022/05/03 12:25:38;;;;;;;10.55;4.28;;;13.10;99.90;;;;;;5028219;28;20041;-46
2022/05/03 12:28:05;;;;;;;15.38;4.82;;;13.20;99.90;;;;;;5026706;28;20038;-46
2022/05/03 12:30:31;;;;;;;14.27;4.57;;;13.30;99.90;;;;;;5029400;28;20060;-45
2022/05/03 12:33:06;;;;;;;13.27;4.68;;;13.30;99.90;;;;;;5033615;28;20511;-46
2022/05/03 12:35:35;;;;;;;17.27;4.88;;;13.50;99.90;;;;;;5031349;28;20055;-49
2022/05/03 12:38:15;;;;;;;14.38;4.68;;;13.20;99.90;;;;;;5029127;28;20040;-46
2022/05/03 12:41:07;;;;;;;15.13;4.55;;;13.40;99.90;;;;;;5026612;28;20067;-45
2022/05/03 12:43:33;;;;;;;16.42;4.38;;;13.30;99.90;;;;;;5028882;28;20041;-46
2022/05/03 12:46:04;;;;;;;12.85;4.15;;;13.20;99.90;;;;;;5030023;28;20044;-46
2022/05/03 12:48:33;;;;;;;12.88;4.32;;;13.40;99.90;;;;;;5030581;28;20057;-49
2022/05/03 12:51:00;;;;;;;9.93;4.30;;;13.30;99.90;;;;;;5029499;28;20384;-47
2022/05/03 12:53:31;;;;;;;12.57;4.00;;;13.30;99.90;;;;;;5032544;28;20125;-48
2022/05/03 12:58:21;;;;;;;13.23;3.80;;;13.20;99.90;;;;;;5029888;28;20112;-46
2022/05/03 12:58:44;;;;;;;8.98;3.53;;;13.30;99.90;;;;;;5031566;28;20048;-47
2022/05/03 13:01:14;;;;;;;10.70;3.38;;;13.40;99.90;;;;;;5029368;28;20099;-47
2022/05/03 13:03:40;;;;;;;10.75;3.50;;;13.30;99.90;;;;;;5030936;28;20033;-48
2022/05/03 13:06:05;;;;;;;10.38;3.25;;;13.20;99.90;;;;;;5028682;28;20033;-48
2022/05/03 13:08:31;;;;;;;8.20;3.00;;;13.30;99.90;;;;;;5031799;28;20044;-47
2022/05/03 13:11:00;;;;;;;9.18;3.33;;;13.50;99.90;;;;;;5031438;28;20021;-48
2022/05/03 13:13:26;;;;;;;8.82;3.42;;;13.60;99.90;;;;;;5029049;28;20065;-48
2022/05/03 13:15:52;;;;;;;11.02;3.33;;;13.70;99.90;;;;;;5035531;28;20080;-47
2022/05/03 13:18:17;;;;;;;14.10;3.33;;;13.60;99.90;;;;;;5022254;28;20042;-49
2022/05/03 13:20:43;;;;;;;11.90;3.83;;;13.70;99.90;;;;;;5028371;28;20385;-46
2022/05/03 13:23:14;;;;;;;10.43;2.97;;;14.00;99.90;;;;;;5026756;28;20044;-47
2022/05/03 13:25:40;;;;;;;13.52;3.50;;;14.00;99.90;;;;;;5028895;28;20485;-49
2022/05/03 13:28:06;;;;;;;10.75;3.47;;;13.90;99.90;;;;;;5031143;28;20037;-49
2022/05/03 13:30:35;;;;;;;11.85;3.33;;;14.10;99.90;;;;;;5034708;28;20036;-50
2022/05/03 13:33:00;;;;;;;9.07;3.00;;;14.00;99.90;;;;;;5033050;28;20087;-51
2022/05/03 13:40:55;;;;;;;8.27;2.92;;;14.30;99.90;;;;;;5032223;28;19924;-51
2022/05/03 13:43:22;;;;;;;13.85;2.85;;;14.50;99.90;;;;;;5032985;28;20049;-51